createdAt,value
2023-06-01T00:00:57.290Z,101771.63
2023-06-01T00:03:24.562Z,101772.88
2023-06-01T00:05:52.111Z,101775.97
2023-06-01T00:08:18.658Z,101776.56
2023-06-01T00:10:45.415Z,101770.84
2023-06-01T00:13:11.952Z,101765.53
2023-06-01T00:15:38.715Z,101770.03
2023-06-01T00:18:06.990Z,101772.13
2023-06-01T00:20:33.812Z,101761.25
2023-06-01T00:23:00.635Z,101763.69
2023-06-01T00:25:27.771Z,101762.72
2023-06-01T00:27:54.307Z,101764.34
2023-06-01T00:30:20.991Z,101764.56
2023-06-01T00:32:47.607Z,101767.22
2023-06-01T00:35:14.182Z,101765.81
2023-06-01T00:37:40.757Z,101760.72
2023-06-01T00:40:07.902Z,101760.34
2023-06-01T00:42:34.625Z,101761.16
2023-06-01T00:45:01.221Z,101768.31
2023-06-01T00:47:27.873Z,101765.66
2023-06-01T00:49:54.529Z,101763.22
2023-06-01T00:52:23.183Z,101759.13
2023-06-01T00:54:49.928Z,101763.03
2023-06-01T00:57:16.992Z,101765.94
2023-06-01T00:59:43.696Z,101754.66
2023-06-01T01:02:10.650Z,101763.09
2023-06-01T01:04:37.336Z,101765.75
2023-06-01T01:07:29.553Z,101764.97
2023-06-01T01:10:23.526Z,101767.81
2023-06-01T01:12:58.739Z,101775.22
2023-06-01T01:15:42.445Z,101769.28
2023-06-01T01:18:18.312Z,101769.28
2023-06-01T01:20:49.268Z,101769.50
2023-06-01T01:23:20.793Z,101760.47
2023-06-01T01:26:30.872Z,101763.56
2023-06-01T01:29:02.445Z,101771.16
2023-06-01T01:31:31.363Z,101771.38
2023-06-01T01:33:59.950Z,101765.44
2023-06-01T01:36:26.970Z,101758.09
2023-06-01T01:38:53.597Z,101758.50
2023-06-01T01:41:23.120Z,101761.41
2023-06-01T01:43:51.059Z,101758.94
2023-06-01T01:46:27.195Z,101759.75
2023-06-01T01:49:00.447Z,101755.47
2023-06-01T01:51:38.830Z,101747.09
2023-06-01T01:54:07.626Z,101751.41
2023-06-01T01:56:37.086Z,101749.75
2023-06-01T01:59:04.530Z,101744.91
2023-06-01T02:01:35.509Z,101748.16
2023-06-01T02:04:04.759Z,101741.84
2023-06-01T02:06:31.830Z,101738.38
2023-06-01T02:08:58.417Z,101739.41
2023-06-01T02:11:25.042Z,101733.25
2023-06-01T02:13:51.764Z,101735.34
2023-06-01T02:16:18.405Z,101730.59
2023-06-01T02:18:46.875Z,101726.97
2023-06-01T02:21:14.865Z,101722.66
2023-06-01T02:23:43.193Z,101727.56
2023-06-01T02:26:10.718Z,101729.03
2023-06-01T02:28:41.797Z,101719.66
2023-06-01T02:31:08.704Z,101720.25
2023-06-01T02:33:35.343Z,101723.13
2023-06-01T02:36:02.105Z,101723.13
2023-06-01T02:38:28.999Z,101720.47
2023-06-01T02:40:55.647Z,101723.94
2023-06-01T02:43:22.180Z,101722.09
2023-06-01T02:45:48.825Z,101720.66
2023-06-01T02:48:15.614Z,101727.81
2023-06-01T02:50:42.213Z,101724.59
2023-06-01T02:53:08.819Z,101729.50
2023-06-01T02:55:35.406Z,101729.28
2023-06-01T02:58:01.909Z,101725.00
2023-06-01T03:00:29.197Z,101730.31
2023-06-01T03:02:55.830Z,101727.66
2023-06-01T03:05:22.495Z,101723.97
2023-06-01T03:07:49.376Z,101722.53
2023-06-01T03:10:16.407Z,101721.53
2023-06-01T03:12:42.966Z,101720.72
2023-06-01T03:15:10.036Z,101726.47
2023-06-01T03:17:36.915Z,101723.81
2023-06-01T03:20:04.075Z,101719.06
2023-06-01T03:22:30.851Z,101714.22
2023-06-01T03:24:58.796Z,101717.69
2023-06-01T03:27:25.432Z,101724.22
2023-06-01T03:29:52.024Z,101721.78
2023-06-01T03:32:18.571Z,101722.44
2023-06-01T03:34:45.082Z,101713.44
2023-06-01T03:37:11.636Z,101719.78
2023-06-01T03:39:38.182Z,101717.94
2023-06-01T03:42:05.037Z,101717.94
2023-06-01T03:44:32.285Z,101719.16
2023-06-01T03:46:58.906Z,101724.06
2023-06-01T03:49:25.503Z,101729.38
2023-06-01T03:51:52.298Z,101717.31
2023-06-01T03:54:18.898Z,101720.19
2023-06-01T03:56:45.524Z,101721.81
2023-06-01T03:59:12.092Z,101717.31
2023-06-01T04:01:41.247Z,101711.81
2023-06-01T04:04:09.640Z,101707.72
2023-06-01T04:06:37.375Z,101715.06
2023-06-01T04:09:08.204Z,101703.22
2023-06-01T04:11:34.958Z,101703.44
2023-06-01T04:14:01.519Z,101716.28
2023-06-01T04:16:28.284Z,101708.75
2023-06-01T04:18:54.934Z,101716.72
2023-06-01T04:21:22.390Z,101715.88
2023-06-01T04:23:49.921Z,101720.19
2023-06-01T04:26:18.632Z,101721.00
2023-06-01T04:28:47.005Z,101726.31
2023-06-01T04:31:20.433Z,101718.94
2023-06-01T04:33:54.474Z,101714.66
2023-06-01T04:36:22.520Z,101711.19
2023-06-01T04:38:54.061Z,101710.97
2023-06-01T04:41:24.154Z,101707.50
2023-06-01T04:43:55.193Z,101704.25
2023-06-01T04:46:24.794Z,101706.69
2023-06-01T04:48:58.691Z,101706.69
2023-06-01T04:51:25.347Z,101706.50
2023-06-01T04:53:53.780Z,101706.50
2023-06-01T04:56:25.895Z,101708.69
2023-06-01T04:58:53.466Z,101716.66
2023-06-01T05:01:20.459Z,101713.81
2023-06-01T05:03:47.343Z,101710.94
2023-06-01T05:06:14.599Z,101715.44
2023-06-01T05:08:41.823Z,101709.31
2023-06-01T05:11:10.353Z,101707.63
2023-06-01T05:13:37.968Z,101710.69
2023-06-01T05:16:05.680Z,101701.91
2023-06-01T05:18:32.970Z,101701.91
2023-06-01T05:21:00.029Z,101698.59
2023-06-01T05:23:27.351Z,101712.25
2023-06-01T05:26:00.807Z,101702.25
2023-06-01T05:28:27.361Z,101699.38
2023-06-01T05:30:53.868Z,101698.13
2023-06-01T05:33:20.487Z,101695.25
2023-06-01T05:35:47.118Z,101683.38
2023-06-01T05:38:13.678Z,101684.38
2023-06-01T05:40:40.244Z,101685.00
2023-06-01T05:43:08.816Z,101683.75
2023-06-01T05:45:35.493Z,101687.00
2023-06-01T05:48:02.193Z,101685.97
2023-06-01T05:50:28.732Z,101691.91
2023-06-01T05:52:55.294Z,101694.31
2023-06-01T05:55:21.961Z,101696.78
2023-06-01T05:57:48.562Z,101693.91
2023-06-01T06:00:16.938Z,101695.53
2023-06-01T06:02:45.211Z,101698.78
2023-06-01T06:05:12.773Z,101699.38
2023-06-01T06:07:40.051Z,101696.53
2023-06-01T06:10:07.424Z,101696.28
2023-06-01T06:12:34.003Z,101693.63
2023-06-01T06:15:00.571Z,101692.41
2023-06-01T06:17:27.202Z,101699.91
2023-06-01T06:19:53.795Z,101699.72
2023-06-01T06:22:21.184Z,101692.31
2023-06-01T06:24:48.475Z,101704.38
2023-06-01T06:27:15.048Z,101695.97
2023-06-01T06:29:41.614Z,101702.69
2023-06-01T06:32:08.948Z,101703.06
2023-06-01T06:34:38.453Z,101698.13
2023-06-01T06:37:08.227Z,101698.13
2023-06-01T06:39:35.330Z,101689.72
2023-06-01T06:42:04.676Z,101693.56
2023-06-01T06:44:31.303Z,101694.16
2023-06-01T06:47:02.925Z,101695.56
2023-06-01T06:49:29.871Z,101688.75
2023-06-01T06:51:57.021Z,101684.63
2023-06-01T06:54:23.949Z,101680.13
2023-06-01T06:56:50.776Z,101680.72
2023-06-01T06:59:17.414Z,101688.03
2023-06-01T07:01:44.483Z,101693.75
2023-06-01T07:04:11.300Z,101694.13
2023-06-01T07:06:38.405Z,101687.31
2023-06-01T07:09:07.071Z,101691.16
2023-06-01T07:11:33.879Z,101692.34
2023-06-01T07:14:00.850Z,101692.75
2023-06-01T07:16:29.689Z,101691.50
2023-06-01T07:18:57.383Z,101696.16
2023-06-01T07:21:24.007Z,101688.53
2023-06-01T07:23:50.701Z,101688.88
2023-06-01T07:26:17.238Z,101697.03
2023-06-01T07:28:43.826Z,101700.06
2023-06-01T07:31:10.652Z,101693.25
2023-06-01T07:33:38.384Z,101704.06
2023-06-01T07:36:07.769Z,101701.75
2023-06-01T07:38:34.612Z,101702.13
2023-06-01T07:41:01.686Z,101704.09
2023-06-01T07:43:28.534Z,101701.56
2023-06-01T07:45:56.240Z,101701.13
2023-06-01T07:48:22.810Z,101703.13
2023-06-01T07:50:49.808Z,101699.56
2023-06-01T07:53:16.451Z,101709.78
2023-06-01T07:55:44.770Z,101713.63
2023-06-01T07:58:11.629Z,101705.97
2023-06-01T08:00:38.174Z,101713.06
2023-06-01T08:03:07.126Z,101702.78
2023-06-01T08:05:38.828Z,101711.94
2023-06-01T08:08:06.002Z,101712.06
2023-06-01T08:10:32.697Z,101707.09
2023-06-01T08:12:59.352Z,101716.25
2023-06-01T08:15:27.390Z,101707.81
2023-06-01T08:17:53.961Z,101715.94
2023-06-01T08:20:22.685Z,101714.44
2023-06-01T08:22:50.401Z,101719.06
2023-06-01T08:25:17.153Z,101711.22
2023-06-01T08:27:44.509Z,101717.53
2023-06-01T08:30:12.420Z,101718.69
2023-06-01T08:32:39.778Z,101711.63
2023-06-01T08:35:09.566Z,101708.03
2023-06-01T08:37:37.093Z,101721.50
2023-06-01T08:40:07.809Z,101709.91
2023-06-01T08:42:47.065Z,101714.31
2023-06-01T08:45:14.816Z,101710.97
2023-06-01T08:47:43.105Z,101713.75
2023-06-01T08:50:13.034Z,101712.25
2023-06-01T08:52:42.442Z,101715.25
2023-06-01T08:55:09.944Z,101712.69
2023-06-01T08:57:36.771Z,101716.31
2023-06-01T09:00:03.842Z,101715.34
2023-06-01T09:02:30.761Z,101713.84
2023-06-01T09:04:57.391Z,101712.31
2023-06-01T09:07:24.404Z,101711.41
2023-06-01T09:09:51.378Z,101714.44
2023-06-01T09:12:27.081Z,101716.16
2023-06-01T09:15:17.639Z,101714.63
2023-06-01T09:17:53.617Z,101713.09
2023-06-01T09:20:28.250Z,101709.50
2023-06-01T09:22:56.042Z,101699.72
2023-06-01T09:25:28.130Z,101711.94
2023-06-01T09:27:56.214Z,101705.06
2023-06-01T09:30:27.709Z,101706.00
2023-06-01T09:33:14.545Z,101705.03
2023-06-01T09:35:45.403Z,101711.06
2023-06-01T09:38:12.644Z,101713.00
2023-06-01T09:40:40.560Z,101705.06
2023-06-01T09:43:23.155Z,101713.22
2023-06-01T09:46:07.207Z,101701.53
2023-06-01T09:48:33.901Z,101704.09
2023-06-01T09:51:02.686Z,101704.16
2023-06-01T09:53:40.475Z,101691.72
2023-06-01T09:56:07.118Z,101692.34
2023-06-01T09:58:35.439Z,101700.81
2023-06-01T10:01:05.061Z,101683.63
2023-06-01T10:03:32.033Z,101684.59
2023-06-01T10:05:59.263Z,101677.31
2023-06-01T10:08:26.240Z,101686.63
2023-06-01T10:10:54.441Z,101678.28
2023-06-01T10:13:23.549Z,101679.19
2023-06-01T10:15:50.985Z,101688.19
2023-06-01T10:18:18.611Z,101683.78
2023-06-01T10:20:45.132Z,101684.97
2023-06-01T10:23:26.806Z,101679.75
2023-06-01T10:25:58.746Z,101679.63
2023-06-01T10:28:28.854Z,101682.44
2023-06-01T10:31:33.024Z,101685.00
2023-06-01T10:33:59.615Z,101685.59
2023-06-01T10:36:52.270Z,101680.38
2023-06-01T10:39:32.151Z,101672.09
2023-06-01T10:42:19.675Z,101674.59
2023-06-01T10:44:48.177Z,101681.09
2023-06-01T10:47:14.723Z,101677.41
2023-06-01T10:50:01.927Z,101682.56
2023-06-01T10:52:36.787Z,101682.84
2023-06-01T10:55:15.133Z,101682.94
2023-06-01T10:57:44.440Z,101671.41
2023-06-01T11:00:25.050Z,101681.38
2023-06-01T11:02:56.147Z,101677.16
2023-06-01T11:05:52.358Z,101671.81
2023-06-01T11:08:21.540Z,101674.56
2023-06-01T11:10:54.374Z,101671.41
2023-06-01T11:13:27.225Z,101676.53
2023-06-01T11:16:10.559Z,101677.63
2023-06-01T11:18:43.402Z,101673.34
2023-06-01T11:21:11.683Z,101673.91
2023-06-01T11:23:42.099Z,101668.03
2023-06-01T11:26:09.398Z,101666.16
2023-06-01T11:28:36.557Z,101666.97
2023-06-01T11:31:04.326Z,101670.19
2023-06-01T11:33:34.775Z,101664.28
2023-06-01T11:36:06.110Z,101668.56
2023-06-01T11:38:41.231Z,101656.44
2023-06-01T11:41:09.448Z,101661.81
2023-06-01T11:43:39.699Z,101668.28
2023-06-01T11:46:21.056Z,101669.09
2023-06-01T11:49:06.181Z,101666.16
2023-06-01T11:51:35.158Z,101660.78
2023-06-01T11:54:03.190Z,101664.81
2023-06-01T11:56:40.791Z,101666.19
2023-06-01T11:59:11.212Z,101653.31
2023-06-01T12:01:44.463Z,101660.03
2023-06-01T12:04:19.514Z,101658.13
2023-06-01T12:06:47.311Z,101657.63
2023-06-01T12:09:17.691Z,101657.91
2023-06-01T12:11:45.794Z,101654.72
2023-06-01T12:14:14.611Z,101658.50
2023-06-01T12:16:55.451Z,101652.34
2023-06-01T12:19:22.877Z,101657.72
2023-06-01T12:21:56.254Z,101662.31
2023-06-01T12:24:30.944Z,101656.44
2023-06-01T12:26:59.630Z,101661.00
2023-06-01T12:29:47.515Z,101662.09
2023-06-01T12:32:19.071Z,101659.72
2023-06-01T12:35:09.532Z,101656.81
2023-06-01T12:37:36.674Z,101656.03
2023-06-01T12:40:05.022Z,101656.31
2023-06-01T12:42:39.578Z,101665.19
2023-06-01T12:45:08.726Z,101660.66
2023-06-01T12:47:45.185Z,101654.75
2023-06-01T12:50:13.975Z,101656.09
2023-06-01T12:52:45.851Z,101654.75
2023-06-01T12:55:13.428Z,101653.44
2023-06-01T12:57:40.486Z,101660.13
2023-06-01T13:00:08.370Z,101658.00
2023-06-01T13:02:36.622Z,101658.53
2023-06-01T13:05:06.318Z,101656.41
2023-06-01T13:07:33.422Z,101654.00
2023-06-01T13:10:01.666Z,101656.13
2023-06-01T13:12:32.809Z,101659.66
2023-06-01T13:14:59.922Z,101649.16
2023-06-01T13:17:28.040Z,101651.06
2023-06-01T13:19:55.161Z,101644.06
2023-06-01T13:22:22.464Z,101657.53
2023-06-01T13:25:03.454Z,101645.41
2023-06-01T13:27:35.389Z,101652.41
2023-06-01T13:30:05.454Z,101653.22
2023-06-01T13:32:32.734Z,101644.63
2023-06-01T13:34:59.869Z,101646.75
2023-06-01T13:37:26.899Z,101645.44
2023-06-01T13:39:53.940Z,101644.06
2023-06-01T13:42:21.575Z,101647.56
2023-06-01T13:44:49.248Z,101640.56
2023-06-01T13:47:16.597Z,101636.28
2023-06-01T13:49:44.478Z,101638.13
2023-06-01T13:52:11.816Z,101637.31
2023-06-01T13:54:39.169Z,101627.34
2023-06-01T13:57:07.160Z,101615.53
2023-06-01T13:59:36.475Z,101623.88
2023-06-01T14:02:04.185Z,101622.53
2023-06-01T14:04:31.652Z,101616.88
2023-06-01T14:06:58.325Z,101612.31
2023-06-01T14:09:24.863Z,101618.22
2023-06-01T14:11:51.604Z,101628.19
2023-06-01T14:14:18.143Z,101619.28
2023-06-01T14:16:46.802Z,101626.56
2023-06-01T14:19:13.848Z,101625.44
2023-06-01T14:21:40.808Z,101625.16
2023-06-01T14:24:07.825Z,101624.31
2023-06-01T14:26:35.917Z,101628.63
2023-06-01T14:29:02.489Z,101632.34
2023-06-01T14:31:29.089Z,101620.47
2023-06-01T14:33:56.476Z,101626.34
2023-06-01T14:36:28.464Z,101613.69
2023-06-01T14:39:01.585Z,101610.47
2023-06-01T14:41:28.442Z,101610.47
2023-06-01T14:43:54.971Z,101611.81
2023-06-01T14:46:22.586Z,101614.78
2023-06-01T14:48:49.680Z,101604.06
2023-06-01T14:51:16.232Z,101604.91
2023-06-01T14:53:42.912Z,101612.72
2023-06-01T14:56:10.315Z,101602.28
2023-06-01T14:58:36.910Z,101607.38
2023-06-01T15:01:04.076Z,101593.41
2023-06-01T15:03:31.083Z,101593.97
2023-06-01T15:05:58.272Z,101587.53
2023-06-01T15:08:24.941Z,101589.41
2023-06-01T15:10:53.777Z,101591.28
2023-06-01T15:13:20.683Z,101585.63
2023-06-01T15:15:47.282Z,101580.25
2023-06-01T15:18:13.876Z,101582.13
2023-06-01T15:20:40.640Z,101578.63
2023-06-01T15:23:07.171Z,101572.44
2023-06-01T15:25:33.691Z,101579.72
2023-06-01T15:28:00.209Z,101588.31
2023-06-01T15:30:28.208Z,101578.91
2023-06-01T15:33:07.536Z,101583.50
2023-06-01T15:35:35.566Z,101588.06
2023-06-01T15:38:02.105Z,101583.75
2023-06-01T15:40:28.876Z,101579.72
2023-06-01T15:42:55.571Z,101575.69
2023-06-01T15:45:22.133Z,101586.72
2023-06-01T15:47:48.724Z,101588.34
2023-06-01T15:50:15.424Z,101593.44
2023-06-01T15:52:42.057Z,101589.94
2023-06-01T15:55:08.980Z,101594.75
2023-06-01T15:57:35.729Z,101599.63
2023-06-01T16:00:03.805Z,101599.34
2023-06-01T16:02:30.625Z,101600.13
2023-06-01T16:04:57.332Z,101592.03
2023-06-01T16:07:23.909Z,101600.63
2023-06-01T16:09:55.077Z,101585.81
2023-06-01T16:12:23.355Z,101587.44
2023-06-01T16:14:49.867Z,101584.44
2023-06-01T16:17:16.439Z,101588.97
2023-06-01T16:19:43.090Z,101582.50
2023-06-01T16:22:10.500Z,101595.38
2023-06-01T16:24:38.392Z,101593.72
2023-06-01T16:27:05.923Z,101592.09
2023-06-01T16:29:32.572Z,101592.34
2023-06-01T16:31:59.280Z,101593.63
2023-06-01T16:34:27.191Z,101594.16
2023-06-01T16:36:53.740Z,101590.38
2023-06-01T16:39:20.339Z,101584.97
2023-06-01T16:41:46.946Z,101588.19
2023-06-01T16:44:14.270Z,101588.16
2023-06-01T16:46:41.094Z,101583.56
2023-06-01T16:49:07.769Z,101588.66
2023-06-01T16:51:34.616Z,101589.16
2023-06-01T16:54:01.192Z,101588.88
2023-06-01T16:56:27.821Z,101584.28
2023-06-01T16:58:54.451Z,101589.03
2023-06-01T17:01:21.002Z,101575.06
2023-06-01T17:03:48.243Z,101586.00
2023-06-01T17:06:15.065Z,101575.50
2023-06-01T17:08:41.603Z,101582.94
2023-06-01T17:11:08.269Z,101584.53
2023-06-01T17:13:35.019Z,101582.06
2023-06-01T17:16:01.765Z,101583.16
2023-06-01T17:18:28.852Z,101575.03
2023-06-01T17:20:57.220Z,101579.06
2023-06-01T17:23:25.116Z,101580.88
2023-06-01T17:25:51.683Z,101572.53
2023-06-01T17:28:18.249Z,101577.28
2023-06-01T17:30:44.800Z,101567.59
2023-06-01T17:33:11.446Z,101577.22
2023-06-01T17:35:39.409Z,101573.66
2023-06-01T17:38:06.190Z,101570.94
2023-06-01T17:40:32.728Z,101574.38
2023-06-01T17:42:59.268Z,101574.25
2023-06-01T17:45:25.827Z,101573.97
2023-06-01T17:47:52.765Z,101573.88
2023-06-01T17:50:19.307Z,101572.22
2023-06-01T17:52:45.931Z,101567.06
2023-06-01T17:55:12.566Z,101568.63
2023-06-01T17:57:39.105Z,101569.06
2023-06-01T18:00:06.590Z,101571.69
2023-06-01T18:02:33.286Z,101569.50
2023-06-01T18:04:59.869Z,101568.41
2023-06-01T18:07:29.178Z,101570.44
2023-06-01T18:09:56.045Z,101580.63
2023-06-01T18:12:22.631Z,101576.56
2023-06-01T18:14:49.168Z,101564.47
2023-06-01T18:17:15.887Z,101574.06
2023-06-01T18:19:42.511Z,101575.06
2023-06-01T18:22:09.933Z,101574.16
2023-06-01T18:24:36.802Z,101588.88
2023-06-01T18:27:03.893Z,101582.63
2023-06-01T18:29:30.453Z,101578.81
2023-06-01T18:31:57.022Z,101570.72
2023-06-01T18:34:23.610Z,101581.59
2023-06-01T18:36:50.280Z,101582.91
2023-06-01T18:39:16.841Z,101581.78
2023-06-01T18:41:43.951Z,101575.84
2023-06-01T18:44:10.564Z,101576.56
2023-06-01T18:46:39.746Z,101575.69
2023-06-01T18:49:06.720Z,101573.19
2023-06-01T18:51:33.384Z,101582.19
2023-06-01T18:54:01.383Z,101580.50
2023-06-01T18:56:28.376Z,101570.28
2023-06-01T18:58:55.690Z,101571.25
2023-06-01T19:01:22.325Z,101572.78
2023-06-01T19:03:51.202Z,101571.09
2023-06-01T19:06:17.953Z,101568.66
2023-06-01T19:08:44.511Z,101569.97
2023-06-01T19:11:11.228Z,101568.25
2023-06-01T19:13:42.904Z,101573.84
2023-06-01T19:16:22.068Z,101571.66
2023-06-01T19:18:57.095Z,101575.38
2023-06-01T19:21:26.123Z,101574.72
2023-06-01T19:23:54.909Z,101575.66
2023-06-01T19:26:26.597Z,101576.97
2023-06-01T19:29:13.246Z,101577.72
2023-06-01T19:31:42.633Z,101579.47
2023-06-01T19:34:10.854Z,101586.34
2023-06-01T19:36:43.618Z,101584.13
2023-06-01T19:39:22.108Z,101587.50
2023-06-01T19:41:48.768Z,101587.16
2023-06-01T19:44:17.202Z,101589.50
2023-06-01T19:46:44.873Z,101589.41
2023-06-01T19:49:16.414Z,101589.66
2023-06-01T19:51:45.036Z,101580.00
2023-06-01T19:54:19.126Z,101574.34
2023-06-01T19:56:47.297Z,101578.78
2023-06-01T19:59:25.147Z,101577.41
2023-06-01T20:01:53.366Z,101578.69
2023-06-01T20:04:20.266Z,101582.88
2023-06-01T20:06:49.442Z,101588.22
2023-06-01T20:09:18.149Z,101597.97
2023-06-01T20:11:50.160Z,101591.47
2023-06-01T20:14:30.964Z,101595.31
2023-06-01T20:16:59.610Z,101604.63
2023-06-01T20:19:26.611Z,101610.44
2023-06-01T20:21:55.785Z,101613.81
2023-06-01T20:24:24.822Z,101609.75
2023-06-01T20:26:57.579Z,101621.13
2023-06-01T20:29:25.117Z,101626.94
2023-06-01T20:31:55.534Z,101624.75
2023-06-01T20:34:23.592Z,101624.97
2023-06-01T20:36:51.798Z,101625.66
2023-06-01T20:39:19.568Z,101628.59
2023-06-01T20:41:48.092Z,101623.91
2023-06-01T20:44:17.495Z,101632.06
2023-06-01T20:46:44.465Z,101626.72
2023-06-01T20:49:11.097Z,101629.75
2023-06-01T20:51:42.373Z,101621.16
2023-06-01T20:54:11.379Z,101631.00
2023-06-01T20:56:41.601Z,101624.53
2023-06-01T20:59:12.433Z,101629.75
2023-06-01T21:02:05.160Z,101622.97
2023-06-01T21:04:36.597Z,101625.28
2023-06-01T21:07:04.861Z,101631.66
2023-06-01T21:09:31.401Z,101625.16
2023-06-01T21:12:03.145Z,101636.66
2023-06-01T21:14:31.869Z,101627.03
2023-06-01T21:16:58.818Z,101629.78
2023-06-01T21:19:25.568Z,101637.22
2023-06-01T21:21:52.215Z,101637.69
2023-06-01T21:24:18.816Z,101639.53
2023-06-01T21:26:45.884Z,101643.00
2023-06-01T21:29:12.569Z,101648.22
2023-06-01T21:31:39.641Z,101644.38
2023-06-01T21:34:06.524Z,101648.88
2023-06-01T21:36:33.250Z,101648.53
2023-06-01T21:39:00.223Z,101653.75
2023-06-01T21:41:27.752Z,101649.69
2023-06-01T21:43:54.618Z,101642.97
2023-06-01T21:46:21.245Z,101641.34
2023-06-01T21:48:48.004Z,101639.34
2023-06-01T21:51:14.645Z,101647.00
2023-06-01T21:53:41.181Z,101644.34
2023-06-01T21:56:08.761Z,101635.28
2023-06-01T21:58:38.778Z,101644.78
2023-06-01T22:01:06.887Z,101638.03
2023-06-01T22:03:34.052Z,101632.94
2023-06-01T22:06:01.152Z,101640.94
2023-06-01T22:08:27.885Z,101639.19
2023-06-01T22:10:54.443Z,101632.22
2023-06-01T22:13:20.982Z,101634.66
2023-06-01T22:15:47.700Z,101628.16
2023-06-01T22:18:14.379Z,101628.63
2023-06-01T22:20:40.959Z,101630.94
2023-06-01T22:23:09.565Z,101629.88
2023-06-01T22:25:38.265Z,101623.50
2023-06-01T22:28:06.125Z,101621.53
2023-06-01T22:30:33.116Z,101625.81
2023-06-01T22:32:59.807Z,101621.78
2023-06-01T22:35:26.428Z,101622.78
2023-06-01T22:37:53.066Z,101626.94
2023-06-01T22:40:19.740Z,101632.94
2023-06-01T22:42:46.484Z,101621.94
2023-06-01T22:45:13.338Z,101628.06
2023-06-01T22:47:40.129Z,101630.84
2023-06-01T22:50:08.466Z,101625.50
2023-06-01T22:52:35.325Z,101638.81
2023-06-01T22:55:06.757Z,101632.31
2023-06-01T22:57:34.467Z,101625.34
2023-06-01T23:00:01.209Z,101626.41
2023-06-01T23:02:27.903Z,101634.00
2023-06-01T23:04:54.603Z,101631.59
2023-06-01T23:07:21.910Z,101634.25
2023-06-01T23:09:48.676Z,101636.09
2023-06-01T23:12:15.265Z,101635.06
2023-06-01T23:14:44.405Z,101633.06
2023-06-01T23:17:14.389Z,101625.09
2023-06-01T23:19:42.511Z,101626.78
2023-06-01T23:22:12.789Z,101634.75
2023-06-01T23:24:40.399Z,101634.19
2023-06-01T23:27:08.134Z,101628.22
2023-06-01T23:29:35.351Z,101631.13
2023-06-01T23:32:02.031Z,101626.84
2023-06-01T23:34:28.626Z,101629.94
2023-06-01T23:36:56.620Z,101631.56
2023-06-01T23:39:24.320Z,101627.28
2023-06-01T23:41:51.566Z,101631.19
2023-06-01T23:44:18.419Z,101627.72
2023-06-01T23:46:46.429Z,101627.72
2023-06-01T23:49:13.982Z,101629.00
2023-06-01T23:51:41.240Z,101629.44
2023-06-01T23:54:07.967Z,101631.06
2023-06-01T23:56:34.705Z,101622.50
2023-06-01T23:59:01.655Z,101625.34
